Ringling, Montana
Current Conditions -  °F | °C
As of 5:56 PM on Saturday 25 Oct 2014 (Local Time) from KBZN Reporting Station
Clear Clear  
Wind Chill: 64°   Ceiling: Unl
Heat Index: 64°   Visibility: 10mi
Dew Point: 35°   Wind: 0mph
Humidity: 34%   Direction: NA
Pressure: 29.78"   Gusts: NA
Location:  46.27°N, 110.81°W
Report Text: KBZN 252356Z 00000KT 10SM CLR 18/02 A2978 RMK AO2 SLP079 T01780017 10183 20039 58015
Loading
Personal Weather Stations






























Interactive Weather Map
Tropical Storm Tracking
New forecast layout! Learn more

10-Day Weather Forecast

Advertisements
Track Severe Weather on mobile